| time (UTC) | temp F | wind direction | speed MPH | gust MPH | rain 1hr in | rain 24hr in | rain mn in | humidity % | barometer mb |
| 20260505060519 | 0 | 0.0 | 0.0 | 0.00 | 0.00 | 0.00 | |||
| 20260505060019 | 0 | 0.0 | 0.0 | 0.00 | 0.00 | 0.00 | |||
| 20260505055519 | 0 | 0.0 | 0.0 | 0.00 | 0.00 | 0.00 | |||
| 20260505055019 | 0 | 0.0 | 0.0 | 0.00 | 0.00 | 0.00 | |||
| 20260505054519 | 0 | 0.0 | 0.0 | 0.00 | 0.00 | 0.00 | |||
| 20260505054019 | 0 | 0.0 | 0.0 | 0.00 | 0.00 | 0.00 | |||
| 20260505053519 | 0 | 0.0 | 0.0 | 0.00 | 0.00 | 0.00 | |||
| 20260505053019 | 0 | 0.0 | 0.0 | 0.00 | 0.00 | 0.00 | |||
| 20260505052519 | 0 | 0.0 | 0.0 | 0.00 | 0.00 | 0.00 | |||
| 20260505052019 | 0 | 0.0 | 0.0 | 0.00 | 0.00 | 0.00 | |||
| 20260505051519 | 0 | 0.0 | 0.0 | 0.00 | 0.00 | 0.00 | |||
| 20260505051019 | 0 | 0.0 | 0.0 | 0.00 | 0.00 | 0.00 | |||
| 20260505050519 | 0 | 0.0 | 0.0 | 0.00 | 0.00 | 0.00 | |||
| 20260505041519 | 0 | 0.0 | 0.0 | 0.00 | 0.00 | 0.00 | |||
| 20260505041019 | 0 | 0.0 | 0.0 | 0.00 | 0.00 | 0.00 | |||
| 20260505040457 | 0 | 0.0 | 0.0 | 0.00 | 0.00 | 0.00 | |||
| 20260505040019 | 0 | 0.0 | 0.0 | 0.00 | 0.00 | 0.00 | |||
| 20260505035519 | 0 | 0.0 | 0.0 | 0.00 | 0.00 | 0.00 | |||
| 20260505035019 | 0 | 0.0 | 0.0 | 0.00 | 0.00 | 0.00 | |||
| 20260505034519 | 0 | 0.0 | 0.0 | 0.00 | 0.00 | 0.00 | |||
| 20260505034019 | 0 | 0.0 | 0.0 | 0.00 | 0.00 | 0.00 | |||
| 20260505033519 | 0 | 0.0 | 0.0 | 0.00 | 0.00 | 0.00 | |||
| 20260505033016 | 0 | 0.0 | 0.0 | 0.00 | 0.00 | 0.00 | |||
| 20260505032519 | 0 | 0.0 | 0.0 | 0.00 | 0.00 | 0.00 | |||
| 20260505032019 | 0 | 0.0 | 0.0 | 0.00 | 0.00 | 0.00 | |||
| 20260505031519 | 0 | 0.0 | 0.0 | 0.00 | 0.00 | 0.00 | |||
| 20260505031036 | 68 | 0.0 | 0.0 | 0.00 | 0.00 | 0.00 | 56 | 1008.7 | |
| 20260505030619 | 68 | 0.0 | 2.0 | 0.00 | 0.00 | 0.00 | 56 | 1008.5 | |
| 20260505030020 | 69 | 0.0 | 0.0 | 0.00 | 0.00 | 0.00 | 56 | 1008.3 | |
| 20260505025519 | 69 | 0.0 | 0.0 | 0.00 | 0.00 | 0.00 | 54 | 1008.3 | |
| 20260505025019 | 70 | 0.0 | 4.0 | 0.00 | 0.00 | 0.00 | 54 | 1008.3 | |
| 20260505024519 | 70 | 270 | 1.0 | 6.0 | 0.00 | 0.00 | 0.00 | 53 | 1008.3 |
| 20260505024019 | 71 | 0.0 | 7.0 | 0.00 | 0.00 | 0.00 | 52 | 1008.3 | |
| 20260505023519 | 71 | 225 | 1.0 | 11.0 | 0.00 | 0.00 | 0.00 | 51 | 1008.3 |
| 20260505023020 | 72 | 0.0 | 3.0 | 0.00 | 0.00 | 0.00 | 50 | 1008.3 | |
| 20260505022519 | 72 | 270 | 1.0 | 9.0 | 0.00 | 0.00 | 0.00 | 49 | 1008.3 |
| 20260505022019 | 72 | 270 | 2.0 | 8.0 | 0.00 | 0.00 | 0.00 | 49 | 1008.2 |
| 20260505021519 | 73 | 270 | 2.0 | 9.0 | 0.00 | 0.00 | 0.00 | 48 | 1008.2 |
| 20260505021019 | 73 | 225 | 2.0 | 7.0 | 0.00 | 0.00 | 0.00 | 47 | 1008.1 |
| 20260505020520 | 73 | 225 | 1.0 | 4.0 | 0.00 | 0.00 | 0.00 | 46 | 1008.2 |
| 20260505020020 | 74 | 225 | 1.0 | 7.0 | 0.00 | 0.00 | 0.00 | 44 | 1008.1 |
| 20260505015519 | 74 | 248 | 2.0 | 8.0 | 0.00 | 0.00 | 0.00 | 44 | 1008.1 |
| 20260505015019 | 75 | 270 | 1.0 | 9.0 | 0.00 | 0.00 | 0.00 | 44 | 1008.1 |
| 20260505014520 | 75 | 0.0 | 4.0 | 0.00 | 0.00 | 0.00 | 44 | 1008.2 | |
| 20260505014019 | 76 | 225 | 2.0 | 9.0 | 0.00 | 0.00 | 0.00 | 45 | |
| 20260505013520 | 76 | 270 | 2.0 | 9.0 | 0.00 | 0.00 | 0.00 | 44 | |
| 20260505013019 | 76 | 270 | 1.0 | 8.0 | 0.00 | 0.00 | 0.00 | 45 | |
| 20260505012519 | 76 | 0.0 | 4.0 | 0.00 | 0.00 | 0.00 | 43 | ||
| 20260505012019 | 77 | 270 | 2.0 | 8.0 | 0.00 | 0.00 | 0.00 | 40 | |
| 20260505011520 | 77 | 0.0 | 4.0 | 0.00 | 0.00 | 0.00 | 41 | ||
| 20260505011019 | 76 | 293 | 1.0 | 5.0 | 0.00 | 0.00 | 0.00 | 38 | |
| 20260505010519 | 76 | 225 | 1.0 | 7.0 | 0.00 | 0.00 | 0.00 | 39 | |
| 20260505010020 | 77 | 270 | 1.0 | 6.0 | 0.00 | 0.00 | 0.00 | 41 | |
| 20260505005520 | 77 | 0.0 | 1.0 | 0.00 | 0.00 | 0.00 | 39 | ||
| 20260505005019 | 77 | 270 | 2.0 | 8.0 | 0.00 | 0.00 | 0.00 | 38 | |
| 20260505004519 | 77 | 0.0 | 3.0 | 0.00 | 0.00 | 0.00 | 41 | ||
| 20260505004019 | 77 | 270 | 2.0 | 8.0 | 0.00 | 0.00 | 0.00 | 43 | |
| 20260505003519 | 77 | 225 | 1.0 | 7.0 | 0.00 | 0.00 | 0.00 | 42 | |
| 20260505003019 | 76 | 248 | 1.0 | 4.0 | 0.00 | 0.00 | 0.00 | 42 | |
| 20260505002519 | 76 | 248 | 2.0 | 9.0 | 0.00 | 0.00 | 0.00 | 43 | |
| 20260505002020 | 76 | 270 | 3.0 | 12.0 | 0.00 | 0.00 | 0.00 | 43 | |
| 20260505001519 | 77 | 270 | 5.0 | 12.0 | 0.00 | 0.00 | 0.00 | 43 | |
| 20260505001020 | 77 | 270 | 3.0 | 10.0 | 0.00 | 0.00 | 0.00 | 47 | |
| 20260505000520 | 77 | 270 | 2.0 | 9.0 | 0.00 | 0.00 | 0.00 | 47 | |
| 20260505000019 | 77 | 270 | 2.0 | 8.0 | 0.00 | 0.00 | 0.00 | 47 | |
| 20260504235519 | 77 | 270 | 2.0 | 9.0 | 0.00 | 0.00 | 0.00 | 49 | |
| 20260504235020 | 77 | 225 | 1.0 | 6.0 | 0.00 | 0.00 | 0.00 | 48 | |
| 20260504234519 | 77 | 270 | 4.0 | 11.0 | 0.00 | 0.00 | 0.00 | 49 | |
| 20260504234019 | 77 | 270 | 2.0 | 10.0 | 0.00 | 0.00 | 0.00 | 49 | |
| 20260504233520 | 77 | 248 | 1.0 | 8.0 | 0.00 | 0.00 | 0.00 | 47 | |
| 20260504233020 | 77 | 338 | 3.0 | 11.0 | 0.00 | 0.00 | 0.00 | 48 | |
| 20260504232520 | 77 | 270 | 2.0 | 8.0 | 0.00 | 0.00 | 0.00 | 47 | |
| 20260504232020 | 78 | 270 | 2.0 | 9.0 | 0.00 | 0.00 | 0.00 | 47 | |
| 20260504231519 | 78 | 225 | 2.0 | 8.0 | 0.00 | 0.00 | 0.00 | 47 | |
| 20260504231020 | 78 | 270 | 3.0 | 10.0 | 0.00 | 0.00 | 0.00 | 48 | |
| 20260504230520 | 78 | 270 | 1.0 | 7.0 | 0.00 | 0.00 | 0.00 | 46 | |
| 20260504230020 | 78 | 225 | 2.0 | 9.0 | 0.00 | 0.00 | 0.00 | 46 | |
| 20260504225520 | 78 | 225 | 3.0 | 10.0 | 0.00 | 0.00 | 0.00 | 45 | |
| 20260504225020 | 78 | 270 | 1.0 | 8.0 | 0.00 | 0.00 | 0.00 | 45 | |
| 20260504224520 | 77 | 270 | 2.0 | 7.0 | 0.00 | 0.00 | 0.00 | 49 | |
| 20260504224020 | 77 | 0 | 2.0 | 11.0 | 0.00 | 0.00 | 0.00 | 45 | |
| 20260504223520 | 77 | 0 | 2.0 | 6.0 | 0.00 | 0.00 | 0.00 | 43 | |
| 20260504223019 | 78 | 338 | 2.0 | 8.0 | 0.00 | 0.00 | 0.00 | 45 | |
| 20260504222520 | 77 | 270 | 3.0 | 9.0 | 0.00 | 0.00 | 0.00 | 46 | |
| 20260504222020 | 77 | 225 | 2.0 | 8.0 | 0.00 | 0.00 | 0.00 | 44 | |
| 20260504221519 | 77 | 0.0 | 6.0 | 0.00 | 0.00 | 0.00 | 45 | ||
| 20260504221020 | 77 | 270 | 2.0 | 11.0 | 0.00 | 0.00 | 0.00 | 45 | |
| 20260504220520 | 77 | 270 | 2.0 | 10.0 | 0.00 | 0.00 | 0.00 | 44 | |
| 20260504220020 | 77 | 338 | 3.0 | 11.0 | 0.00 | 0.00 | 0.00 | 45 | |
| 20260504215520 | 77 | 270 | 1.0 | 6.0 | 0.00 | 0.00 | 0.00 | 43 | |
| 20260504215020 | 77 | 248 | 2.0 | 7.0 | 0.00 | 0.00 | 0.00 | 44 | |
| 20260504214519 | 77 | 225 | 1.0 | 6.0 | 0.00 | 0.00 | 0.00 | 47 | |
| 20260504214020 | 77 | 270 | 1.0 | 7.0 | 0.00 | 0.00 | 0.00 | 45 | |
| 20260504213520 | 76 | 270 | 1.0 | 8.0 | 0.00 | 0.00 | 0.00 | 45 | |
| 20260504213020 | 76 | 0.0 | 3.0 | 0.00 | 0.00 | 0.00 | 44 | ||
| 20260504212520 | 76 | 270 | 3.0 | 11.0 | 0.00 | 0.00 | 0.00 | 46 | |
| 20260504212020 | 76 | 45 | 3.0 | 11.0 | 0.00 | 0.00 | 0.00 | 43 | |
| 20260504211520 | 77 | 338 | 2.0 | 6.0 | 0.00 | 0.00 | 0.00 | 43 | |
| 20260504211020 | 76 | 0.0 | 1.0 | 0.00 | 0.00 | 0.00 | 45 | ||
| 20260504210520 | 76 | 0 | 1.0 | 9.0 | 0.00 | 0.00 | 0.00 | 46 | |
| 20260504210020 | 76 | 0.0 | 6.0 | 0.00 | 0.00 | 0.00 | 45 | ||
| 20260504205520 | 76 | 225 | 1.0 | 7.0 | 0.00 | 0.00 | 0.00 | 48 | |
| 20260504205020 | 75 | 338 | 1.0 | 5.0 | 0.00 | 0.00 | 0.00 | 47 | |
| 20260504204520 | 76 | 270 | 1.0 | 8.0 | 0.00 | 0.00 | 0.00 | 46 | |
| 20260504204020 | 75 | 0.0 | 6.0 | 0.00 | 0.00 | 0.00 | 47 | ||
| 20260504203520 | 75 | 0.0 | 3.0 | 0.00 | 0.00 | 0.00 | 47 | ||
| 20260504203020 | 75 | 0.0 | 3.0 | 0.00 | 0.00 | 0.00 | 46 | ||
| 20260504202520 | 75 | 0.0 | 1.0 | 0.00 | 0.00 | 0.00 | 47 | ||
| 20260504202020 | 75 | 0.0 | 0.0 | 0.00 | 0.00 | 0.00 | 46 | ||
| 20260504201520 | 75 | 338 | 1.0 | 5.0 | 0.00 | 0.00 | 0.00 | 46 | |
| 20260504201020 | 75 | 0.0 | 3.0 | 0.00 | 0.00 | 0.00 | 46 | ||
| 20260504200520 | 75 | 270 | 1.0 | 9.0 | 0.00 | 0.00 | 0.00 | 50 | |
| 20260504200020 | 75 | 270 | 1.0 | 9.0 | 0.00 | 0.00 | 0.00 | 49 | |
| 20260504195520 | 74 | 338 | 2.0 | 7.0 | 0.00 | 0.00 | 0.00 | 49 | |
| 20260504195020 | 74 | 0.0 | 3.0 | 0.00 | 0.00 | 0.00 | 48 | ||
| 20260504194520 | 74 | 248 | 1.0 | 7.0 | 0.00 | 0.00 | 0.00 | 50 | |
| 20260504194020 | 74 | 0.0 | 5.0 | 0.00 | 0.00 | 0.00 | 47 | ||
| 20260504193520 | 74 | 338 | 1.0 | 5.0 | 0.00 | 0.00 | 0.00 | 45 | |
| 20260504193020 | 74 | 0.0 | 8.0 | 0.00 | 0.00 | 0.00 | 49 | ||
| 20260504192520 | 74 | 0.0 | 8.0 | 0.00 | 0.00 | 0.00 | 51 | ||
| 20260504192020 | 74 | 0.0 | 0.0 | 0.00 | 0.00 | 0.00 | 47 | ||
| 20260504191520 | 73 | 0.0 | 2.0 | 0.00 | 0.00 | 0.00 | 49 | ||
| 20260504191020 | 73 | 0.0 | 4.0 | 0.00 | 0.00 | 0.00 | 49 | ||
| 20260504190520 | 72 | 0.0 | 5.0 | 0.00 | 0.00 | 0.00 | 50 | ||
| 20260504190020 | 72 | 0.0 | 5.0 | 0.00 | 0.00 | 0.00 | 50 | ||
| 20260504185520 | 72 | 225 | 1.0 | 7.0 | 0.00 | 0.00 | 0.00 | 49 | |
| 20260504185020 | 72 | 0.0 | 6.0 | 0.00 | 0.00 | 0.00 | 50 | ||
| 20260504184520 | 71 | 0.0 | 4.0 | 0.00 | 0.00 | 0.00 | 50 | ||
| 20260504184020 | 71 | 0.0 | 1.0 | 0.00 | 0.00 | 0.00 | 51 | ||
| 20260504183520 | 71 | 0.0 | 1.0 | 0.00 | 0.00 | 0.00 | 50 | ||
| 20260504183020 | 71 | 0.0 | 3.0 | 0.00 | 0.00 | 0.00 | 52 | ||
| 20260504182520 | 70 | 0.0 | 4.0 | 0.00 | 0.00 | 0.00 | 51 | ||
| 20260504182020 | 70 | 0 | 1.0 | 8.0 | 0.00 | 0.00 | 0.00 | 54 | |
| 20260504181520 | 70 | 0.0 | 5.0 | 0.00 | 0.00 | 0.00 | 53 | ||
| 20260504181020 | 70 | 0.0 | 0.0 | 0.00 | 0.00 | 0.00 | 53 | ||
| 20260504180520 | 69 | 0.0 | 4.0 | 0.00 | 0.00 | 0.00 | 53 | ||
| 20260504180020 | 69 | 0.0 | 0.0 | 0.00 | 0.00 | 0.00 | 54 | ||
| 20260504175520 | 69 | 23 | 2.0 | 8.0 | 0.00 | 0.00 | 0.00 | 53 | |
| 20260504175020 | 69 | 0.0 | 0.0 | 0.00 | 0.00 | 0.00 | 55 | ||
| 20260504174520 | 68 | 0.0 | 0.0 | 0.00 | 0.00 | 0.00 | 55 | ||
| 20260504174020 | 68 | 0.0 | 0.0 | 0.00 | 0.00 | 0.00 | 56 | ||
| 20260504173520 | 68 | 0.0 | 3.0 | 0.00 | 0.00 | 0.00 | 57 | ||
| 20260504173020 | 68 | 0.0 | 0.0 | 0.00 | 0.00 | 0.00 | 57 | ||
| 20260504172520 | 67 | 0.0 | 1.0 | 0.00 | 0.00 | 0.00 | 57 | ||
| 20260504172020 | 67 | 0.0 | 0.0 | 0.00 | 0.00 | 0.00 | 58 | ||
| 20260504171520 | 67 | 0.0 | 0.0 | 0.00 | 0.00 | 0.00 | 57 | ||
| 20260504171020 | 67 | 270 | 1.0 | 6.0 | 0.00 | 0.00 | 0.00 | 57 | |
| 20260504170520 | 66 | 0.0 | 4.0 | 0.00 | 0.00 | 0.00 | 56 | ||
| 20260504151018 | 57 | 0.0 | 0.0 | 0.00 | 0.00 | 0.00 | 56 | 1009.5 | |
| 20260504150520 | 57 | 0.0 | 0.0 | 0.00 | 0.00 | 0.00 | 55 | 1009.6 | |
| 20260504141020 | 54 | 0.0 | 0.0 | 0.00 | 0.00 | 0.00 | 47 | 1009.3 | |
| 20260504140518 | 54 | 0.0 | 0.0 | 0.00 | 0.00 | 0.00 | 48 | 1009.2 | |
| 20260504130519 | 0 | 0.0 | 0.0 | 0.00 | 0.00 | 0.00 | |||
| 20260504110518 | 0 | 0.0 | 0.0 | 0.00 | 0.00 | 0.00 | |||
| 20260504100518 | 0 | 0.0 | 0.0 | 0.00 | 0.00 | 0.00 | |||
| 20260504081518 | 0 | 0.0 | 0.0 | 0.00 | 0.00 | 0.00 | |||
| 20260504081018 | 0 | 0.0 | 0.0 | 0.00 | 0.00 | 0.00 | |||
| 20260504080518 | 0 | 0.0 | 0.0 | 0.00 | 0.00 | 0.00 |